createdAt,value
2018-07-29T00:00:39.222Z,942.36
2018-07-29T00:01:47.188Z,942.38
2018-07-29T00:02:55.031Z,942.35
2018-07-29T00:04:03.198Z,942.36
2018-07-29T00:05:11.341Z,942.42
2018-07-29T00:06:19.747Z,942.40
2018-07-29T00:07:27.774Z,942.39
2018-07-29T00:08:37.170Z,942.40
2018-07-29T00:09:43.697Z,942.39
2018-07-29T00:10:55.325Z,942.39
2018-07-29T00:11:59.578Z,942.40
2018-07-29T00:13:10.720Z,942.41
2018-07-29T00:14:16.016Z,942.38
2018-07-29T00:15:23.983Z,942.37
2018-07-29T00:16:32.065Z,942.40
2018-07-29T00:17:40.474Z,942.36
2018-07-29T00:18:48.316Z,942.36
2018-07-29T00:19:56.387Z,942.37
2018-07-29T00:21:04.284Z,942.36
2018-07-29T00:22:12.856Z,942.41
2018-07-29T00:23:21.103Z,942.41
2018-07-29T00:24:28.718Z,942.37
2018-07-29T00:25:36.749Z,942.37
2018-07-29T00:26:45.106Z,942.39
2018-07-29T00:27:53.105Z,942.41
2018-07-29T00:29:01.128Z,942.43
2018-07-29T00:30:09.189Z,942.45
2018-07-29T00:31:17.449Z,942.49
2018-07-29T00:32:25.357Z,942.47
2018-07-29T00:33:33.332Z,942.43
2018-07-29T00:34:41.341Z,942.47
2018-07-29T00:35:49.623Z,942.45
2018-07-29T00:36:57.661Z,942.42
2018-07-29T00:38:06.179Z,942.44
2018-07-29T00:39:13.857Z,942.41
2018-07-29T00:40:21.820Z,942.46
2018-07-29T00:41:30.203Z,942.48
2018-07-29T00:42:38.471Z,942.50
2018-07-29T00:43:46.307Z,942.49
2018-07-29T00:44:54.345Z,942.50
2018-07-29T00:46:03.136Z,942.53
2018-07-29T00:47:10.416Z,942.54
2018-07-29T00:48:18.685Z,942.56
2018-07-29T00:49:26.782Z,942.54
2018-07-29T00:50:34.596Z,942.54
2018-07-29T00:51:42.665Z,942.56
2018-07-29T00:52:50.973Z,942.52
2018-07-29T00:53:59.130Z,942.52
2018-07-29T00:55:07.054Z,942.47
2018-07-29T00:56:15.049Z,942.46
2018-07-29T00:57:23.128Z,942.49
2018-07-29T00:58:31.117Z,942.46
2018-07-29T00:59:39.439Z,942.42
2018-07-29T01:00:47.188Z,942.36
2018-07-29T01:01:55.639Z,942.34
2018-07-29T01:03:03.367Z,942.34
2018-07-29T01:04:11.584Z,942.36
2018-07-29T01:05:19.556Z,942.42
2018-07-29T01:06:28.041Z,942.46
2018-07-29T01:07:35.695Z,942.47
2018-07-29T01:08:43.756Z,942.49
2018-07-29T01:09:51.978Z,942.49
2018-07-29T01:11:00.210Z,942.51
2018-07-29T01:12:08.124Z,942.53
2018-07-29T01:13:16.438Z,942.54
2018-07-29T01:14:24.192Z,942.56
2018-07-29T01:15:32.529Z,942.55
2018-07-29T01:16:40.768Z,942.56
2018-07-29T01:17:48.564Z,942.53
2018-07-29T01:18:56.496Z,942.52
2018-07-29T01:20:04.707Z,942.47
2018-07-29T01:21:12.761Z,942.46
2018-07-29T01:22:23.513Z,942.44
2018-07-29T01:23:28.714Z,942.43
2018-07-29T01:24:37.969Z,942.41
2018-07-29T01:25:44.909Z,942.42
2018-07-29T01:26:53.104Z,942.43
2018-07-29T01:28:03.959Z,942.42
2018-07-29T01:29:09.419Z,942.43
2018-07-29T01:30:17.517Z,942.42
2018-07-29T01:31:25.546Z,942.39
2018-07-29T01:32:38.893Z,942.42
2018-07-29T01:33:41.691Z,942.39
2018-07-29T01:34:49.791Z,942.37
2018-07-29T01:35:57.812Z,942.36
2018-07-29T01:37:05.927Z,942.33
2018-07-29T01:38:14.064Z,942.28
2018-07-29T01:39:22.015Z,942.28
2018-07-29T01:40:30.078Z,942.32
2018-07-29T01:41:38.145Z,942.34
2018-07-29T01:42:46.304Z,942.30
2018-07-29T01:43:54.402Z,942.32
2018-07-29T01:45:02.343Z,942.29
2018-07-29T01:46:10.445Z,942.29
2018-07-29T01:47:18.818Z,942.32
2018-07-29T01:48:26.544Z,942.29
2018-07-29T01:49:34.700Z,942.30
2018-07-29T01:50:42.692Z,942.30
2018-07-29T01:51:50.746Z,942.25
2018-07-29T01:52:59.190Z,942.21
2018-07-29T01:54:06.879Z,942.23
2018-07-29T01:55:14.991Z,942.28
2018-07-29T01:56:23.097Z,942.25
2018-07-29T01:57:31.082Z,942.26
2018-07-29T01:58:39.326Z,942.24
2018-07-29T01:59:47.204Z,942.24
2018-07-29T02:00:55.249Z,942.27
2018-07-29T02:02:03.341Z,942.25
2018-07-29T02:03:11.405Z,942.28
2018-07-29T02:04:19.569Z,942.28
2018-07-29T02:05:28.660Z,942.29
2018-07-29T02:06:35.580Z,942.29
2018-07-29T02:07:44.004Z,942.27
2018-07-29T02:08:51.738Z,942.30
2018-07-29T02:09:59.832Z,942.27
2018-07-29T02:11:08.007Z,942.28
2018-07-29T02:12:15.941Z,942.26
2018-07-29T02:13:23.992Z,942.26
2018-07-29T02:14:32.180Z,942.28
2018-07-29T02:15:40.134Z,942.23
2018-07-29T02:16:48.269Z,942.28
2018-07-29T02:17:56.270Z,942.25
2018-07-29T02:19:04.357Z,942.26
2018-07-29T02:20:12.444Z,942.23
2018-07-29T02:21:20.449Z,942.24
2018-07-29T02:22:28.842Z,942.26
2018-07-29T02:23:36.797Z,942.24
2018-07-29T02:24:44.862Z,942.29
2018-07-29T02:25:52.920Z,942.29
2018-07-29T02:27:01.374Z,942.27
2018-07-29T02:28:09.415Z,942.23
2018-07-29T02:29:18.496Z,942.18
2018-07-29T02:30:25.278Z,942.21
2018-07-29T02:31:33.283Z,942.18
2018-07-29T02:32:41.426Z,942.20
2018-07-29T02:33:49.415Z,942.17
2018-07-29T02:34:57.447Z,942.13
2018-07-29T02:36:05.520Z,942.13
2018-07-29T02:37:13.588Z,942.09
2018-07-29T02:38:21.715Z,942.11
2018-07-29T02:39:29.986Z,942.04
2018-07-29T02:40:37.789Z,942.05
2018-07-29T02:41:45.814Z,942.05
2018-07-29T02:42:53.913Z,942.02
2018-07-29T02:44:02.079Z,942.04
2018-07-29T02:45:10.065Z,942.01
2018-07-29T02:46:18.238Z,942.00
2018-07-29T02:47:26.168Z,941.98
2018-07-29T02:48:34.248Z,941.99
2018-07-29T02:49:42.346Z,942.04
2018-07-29T02:50:50.367Z,942.05
2018-07-29T02:51:58.463Z,942.08
2018-07-29T02:53:06.502Z,942.05
2018-07-29T02:54:14.733Z,942.01
2018-07-29T02:55:22.640Z,941.97
2018-07-29T02:56:30.702Z,941.98
2018-07-29T02:57:38.790Z,941.94
2018-07-29T02:58:47.195Z,941.91
2018-07-29T02:59:55.012Z,941.93
2018-07-29T03:01:02.969Z,941.91
2018-07-29T03:02:11.150Z,941.91
2018-07-29T03:03:19.097Z,941.92
2018-07-29T03:04:27.188Z,941.94
2018-07-29T03:05:35.344Z,941.93
2018-07-29T03:06:43.312Z,941.96
2018-07-29T03:07:51.675Z,941.90
2018-07-29T03:08:59.446Z,941.92
2018-07-29T03:10:07.518Z,941.91
2018-07-29T03:11:15.845Z,941.98
2018-07-29T03:12:23.830Z,941.98
2018-07-29T03:13:31.962Z,941.99
2018-07-29T03:14:40.026Z,942.05
2018-07-29T03:15:48.235Z,942.08
2018-07-29T03:16:56.364Z,942.10
2018-07-29T03:18:04.633Z,942.13
2018-07-29T03:19:12.895Z,942.15
2018-07-29T03:20:21.009Z,942.19
2018-07-29T03:21:29.053Z,942.22
2018-07-29T03:22:36.895Z,942.18
2018-07-29T03:23:45.228Z,942.16
2018-07-29T03:24:53.348Z,942.14
2018-07-29T03:26:01.079Z,942.09
2018-07-29T03:27:09.102Z,942.07
2018-07-29T03:28:17.174Z,942.10
2018-07-29T03:29:25.217Z,942.05
2018-07-29T03:30:33.489Z,942.03
2018-07-29T03:31:41.597Z,942.02
2018-07-29T03:32:49.723Z,942.01
2018-07-29T03:33:57.686Z,942.04
2018-07-29T03:35:05.744Z,942.02
2018-07-29T03:36:13.820Z,942.02
2018-07-29T03:37:21.888Z,942.01
2018-07-29T03:38:29.955Z,942.03
2018-07-29T03:39:38.025Z,942.01
2018-07-29T03:40:46.084Z,942.04
2018-07-29T03:41:55.193Z,942.03
2018-07-29T03:43:02.315Z,942.01
2018-07-29T03:44:10.293Z,942.03
2018-07-29T03:45:18.446Z,942.02
2018-07-29T03:46:26.697Z,942.02
2018-07-29T03:47:34.584Z,942.01
2018-07-29T03:48:42.556Z,942.04
2018-07-29T03:49:50.622Z,942.04
2018-07-29T03:50:58.675Z,942.03
2018-07-29T03:52:06.756Z,942.11
2018-07-29T03:53:14.908Z,942.11
2018-07-29T03:54:22.876Z,942.17
2018-07-29T03:55:31.304Z,942.16
2018-07-29T03:56:39.008Z,942.18
2018-07-29T03:57:47.083Z,942.15
2018-07-29T03:58:55.175Z,942.16
2018-07-29T04:00:03.226Z,942.15
2018-07-29T04:01:11.497Z,942.17
2018-07-29T04:02:19.642Z,942.15
2018-07-29T04:03:27.676Z,942.16
2018-07-29T04:04:35.724Z,942.24
2018-07-29T04:05:43.800Z,942.22
2018-07-29T04:06:52.108Z,942.27
2018-07-29T04:08:00.090Z,942.25
2018-07-29T04:09:08.385Z,942.27
2018-07-29T04:10:16.694Z,942.26
2018-07-29T04:11:24.530Z,942.28
2018-07-29T04:12:32.565Z,942.26
2018-07-29T04:13:40.609Z,942.25
2018-07-29T04:14:48.797Z,942.25
2018-07-29T04:15:56.762Z,942.28
2018-07-29T04:17:04.834Z,942.23
2018-07-29T04:18:12.985Z,942.24
2018-07-29T04:19:20.950Z,942.27
2018-07-29T04:20:30.177Z,942.27
2018-07-29T04:21:37.109Z,942.24
2018-07-29T04:22:45.134Z,942.25
2018-07-29T04:23:53.210Z,942.23
2018-07-29T04:25:02.129Z,942.21
2018-07-29T04:26:09.461Z,942.25
2018-07-29T04:27:17.403Z,942.25
2018-07-29T04:28:25.764Z,942.22
2018-07-29T04:29:33.637Z,942.23
2018-07-29T04:30:41.625Z,942.24
2018-07-29T04:31:49.727Z,942.24
2018-07-29T04:32:57.770Z,942.22
2018-07-29T04:34:05.898Z,942.23
2018-07-29T04:35:13.871Z,942.26
2018-07-29T04:36:21.946Z,942.27
2018-07-29T04:37:30.144Z,942.27
2018-07-29T04:38:38.079Z,942.26
2018-07-29T04:39:46.137Z,942.31
2018-07-29T04:40:54.213Z,942.34
2018-07-29T04:42:02.264Z,942.36
2018-07-29T04:43:10.337Z,942.33
2018-07-29T04:44:18.407Z,942.31
2018-07-29T04:45:26.569Z,942.29
2018-07-29T04:46:34.547Z,942.32
2018-07-29T04:47:42.820Z,942.30
2018-07-29T04:48:50.674Z,942.34
2018-07-29T04:49:58.855Z,942.33
2018-07-29T04:51:06.801Z,942.32
2018-07-29T04:52:18.236Z,942.36
2018-07-29T04:53:23.031Z,942.35
2018-07-29T04:54:34.373Z,942.37
2018-07-29T04:55:39.066Z,942.35
2018-07-29T04:56:47.533Z,942.36
2018-07-29T04:57:55.194Z,942.35
2018-07-29T04:59:03.326Z,942.34
2018-07-29T05:00:11.348Z,942.33
2018-07-29T05:01:19.411Z,942.32
2018-07-29T05:02:27.517Z,942.35
2018-07-29T05:03:35.509Z,942.35
2018-07-29T05:04:43.700Z,942.37
2018-07-29T05:05:51.965Z,942.38
2018-07-29T05:07:00.212Z,942.40
2018-07-29T05:08:08.229Z,942.41
2018-07-29T05:09:16.272Z,942.37
2018-07-29T05:10:24.344Z,942.35
2018-07-29T05:11:32.678Z,942.34
2018-07-29T05:12:40.484Z,942.36
2018-07-29T05:13:48.549Z,942.39
2018-07-29T05:14:56.713Z,942.37
2018-07-29T05:16:04.724Z,942.44
2018-07-29T05:17:12.769Z,942.46
2018-07-29T05:18:20.815Z,942.53
2018-07-29T05:19:28.905Z,942.47
2018-07-29T05:20:37.006Z,942.48
2018-07-29T05:21:45.254Z,942.42
2018-07-29T05:22:53.086Z,942.36
2018-07-29T05:24:01.164Z,942.39
2018-07-29T05:25:09.295Z,942.38
2018-07-29T05:26:17.354Z,942.36
2018-07-29T05:27:25.323Z,942.37
2018-07-29T05:28:33.421Z,942.38
2018-07-29T05:29:41.489Z,942.39
2018-07-29T05:30:49.640Z,942.39
2018-07-29T05:31:57.627Z,942.40
2018-07-29T05:33:05.936Z,942.43
2018-07-29T05:34:13.755Z,942.38
2018-07-29T05:35:22.042Z,942.44
2018-07-29T05:36:30.268Z,942.42
2018-07-29T05:37:38.210Z,942.40
2018-07-29T05:38:46.265Z,942.42
2018-07-29T05:39:54.292Z,942.40
2018-07-29T05:41:02.736Z,942.34
2018-07-29T05:42:10.544Z,942.36
2018-07-29T05:43:18.548Z,942.37
2018-07-29T05:44:26.561Z,942.37
2018-07-29T05:45:38.220Z,942.38
2018-07-29T05:46:42.839Z,942.36
2018-07-29T05:47:50.858Z,942.32
2018-07-29T05:48:58.880Z,942.35
2018-07-29T05:50:06.966Z,942.35
2018-07-29T05:51:15.016Z,942.36
2018-07-29T05:52:23.065Z,942.35
2018-07-29T05:53:31.149Z,942.34
2018-07-29T05:54:39.206Z,942.33
2018-07-29T05:55:47.580Z,942.36
2018-07-29T05:56:55.378Z,942.32
2018-07-29T05:58:03.506Z,942.36
2018-07-29T05:59:11.506Z,942.31
2018-07-29T06:00:19.546Z,942.33
2018-07-29T06:01:27.767Z,942.35
2018-07-29T06:02:35.667Z,942.31
2018-07-29T06:03:44.110Z,942.35
2018-07-29T06:04:51.837Z,942.34
2018-07-29T06:05:59.976Z,942.33
2018-07-29T06:07:08.078Z,942.34
2018-07-29T06:08:16.103Z,942.31
2018-07-29T06:09:24.850Z,942.33
2018-07-29T06:10:32.453Z,942.33
2018-07-29T06:11:41.438Z,942.36
2018-07-29T06:12:50.110Z,942.35
2018-07-29T06:13:59.462Z,942.37
2018-07-29T06:15:07.665Z,942.38
2018-07-29T06:16:17.294Z,942.34
2018-07-29T06:17:25.047Z,942.37
2018-07-29T06:19:42.669Z,942.41
2018-07-29T06:20:52.895Z,942.43
2018-07-29T06:22:00.946Z,942.43
2018-07-29T06:23:09.174Z,942.44
2018-07-29T06:24:16.886Z,942.41
2018-07-29T06:25:25.042Z,942.39
2018-07-29T06:26:34.332Z,942.38
2018-07-29T06:27:43.176Z,942.36
2018-07-29T06:28:49.445Z,942.37
2018-07-29T06:29:57.152Z,942.38
2018-07-29T06:31:05.369Z,942.39
2018-07-29T06:32:13.289Z,942.38
2018-07-29T06:33:21.349Z,942.42
2018-07-29T06:34:31.367Z,942.41
2018-07-29T06:35:38.125Z,942.43
2018-07-29T06:36:45.910Z,942.43
2018-07-29T06:37:53.893Z,942.42
2018-07-29T06:39:01.908Z,942.39
2018-07-29T06:40:10.107Z,942.47
2018-07-29T06:41:18.043Z,942.42
2018-07-29T06:42:26.634Z,942.50
2018-07-29T06:43:34.177Z,942.53
2018-07-29T06:44:46.250Z,942.47
2018-07-29T06:45:50.714Z,942.51
2018-07-29T06:46:59.427Z,942.52
2018-07-29T06:48:06.722Z,942.59
2018-07-29T06:49:14.559Z,942.62
2018-07-29T06:50:22.802Z,942.64
2018-07-29T06:51:30.872Z,942.66
2018-07-29T06:52:38.819Z,942.66
2018-07-29T06:53:47.067Z,942.68
2018-07-29T06:54:57.404Z,942.61
2018-07-29T06:56:05.331Z,942.65
2018-07-29T06:57:15.787Z,942.68
2018-07-29T06:58:26.779Z,942.66
2018-07-29T06:59:29.583Z,942.66
2018-07-29T07:00:37.739Z,942.67
2018-07-29T07:01:45.873Z,942.66
2018-07-29T07:02:54.540Z,942.67
2018-07-29T07:04:02.056Z,942.65
2018-07-29T07:05:10.117Z,942.68
2018-07-29T07:06:18.197Z,942.66
2018-07-29T07:07:30.077Z,942.69
2018-07-29T07:08:34.435Z,942.65
2018-07-29T07:09:42.371Z,942.68
2018-07-29T07:10:50.467Z,942.64
2018-07-29T07:11:58.617Z,942.65
2018-07-29T07:13:07.403Z,942.66
2018-07-29T07:14:14.719Z,942.67
2018-07-29T07:15:24.231Z,942.65
2018-07-29T07:16:30.815Z,942.67
2018-07-29T07:17:39.017Z,942.73
2018-07-29T07:18:46.954Z,942.78
2018-07-29T07:19:54.995Z,942.88
2018-07-29T07:21:04.983Z,942.80
2018-07-29T07:22:11.474Z,942.81
2018-07-29T07:23:19.401Z,942.98
2018-07-29T07:24:27.407Z,942.95
2018-07-29T07:25:35.354Z,943.35
2018-07-29T07:26:43.456Z,943.95
2018-07-29T07:27:51.508Z,943.64
2018-07-29T07:29:00.572Z,943.62
2018-07-29T07:30:08.782Z,943.99
2018-07-29T07:31:16.754Z,944.00
2018-07-29T07:32:24.798Z,944.04
2018-07-29T07:33:32.851Z,944.24
2018-07-29T07:34:42.145Z,944.26
2018-07-29T07:35:50.108Z,944.65
2018-07-29T07:36:58.067Z,944.67
2018-07-29T07:38:06.281Z,944.75
2018-07-29T07:39:14.314Z,945.03
2018-07-29T07:40:22.520Z,945.06
2018-07-29T07:42:43.950Z,945.10
2018-07-29T07:43:53.510Z,945.29
2018-07-29T07:44:59.638Z,945.25
2018-07-29T07:46:08.908Z,945.31
2018-07-29T07:47:15.791Z,945.33
2018-07-29T07:48:25.040Z,945.56
2018-07-29T07:49:32.014Z,945.82
2018-07-29T07:50:43.895Z,945.86
2018-07-29T07:51:49.083Z,946.09
2018-07-29T07:52:58.101Z,946.28
2018-07-29T07:54:04.314Z,946.21
2018-07-29T07:55:13.197Z,945.98
2018-07-29T07:56:20.777Z,946.31
2018-07-29T07:57:29.671Z,946.61
2018-07-29T07:58:36.897Z,946.70
2018-07-29T07:59:48.402Z,947.02
2018-07-29T08:00:52.977Z,946.66
2018-07-29T08:02:02.455Z,946.40
2018-07-29T08:03:09.152Z,946.95
2018-07-29T08:04:17.317Z,947.11
2018-07-29T08:05:26.512Z,947.31
2018-07-29T08:06:34.171Z,947.24
2018-07-29T08:07:42.018Z,947.87
2018-07-29T08:08:52.860Z,948.44
2018-07-29T08:09:58.372Z,947.79
2018-07-29T08:11:08.588Z,947.12
2018-07-29T08:12:14.242Z,948.90
2018-07-29T08:13:22.646Z,949.19
2018-07-29T08:14:30.696Z,949.38
2018-07-29T08:15:38.936Z,947.83
2018-07-29T08:16:46.523Z,950.61
2018-07-29T08:17:54.659Z,951.29
2018-07-29T08:19:03.007Z,951.89
2018-07-29T08:20:11.080Z,952.31
2018-07-29T08:21:19.114Z,952.85
2018-07-29T08:22:26.945Z,952.50
2018-07-29T08:23:35.243Z,952.49
2018-07-29T08:24:43.410Z,952.63
2018-07-29T08:25:51.955Z,952.66
2018-07-29T08:27:04.950Z,952.69
2018-07-29T08:28:07.978Z,951.89
2018-07-29T08:29:15.379Z,951.34
2018-07-29T08:30:23.636Z,951.65
2018-07-29T08:31:31.597Z,952.45
2018-07-29T08:32:39.870Z,952.33
2018-07-29T08:33:47.803Z,952.62
2018-07-29T08:34:56.077Z,952.21
2018-07-29T08:36:03.924Z,951.63
2018-07-29T08:37:12.835Z,951.61
2018-07-29T08:38:20.704Z,951.46
2018-07-29T08:39:28.159Z,951.91
2018-07-29T08:40:36.276Z,951.31
2018-07-29T08:41:44.318Z,951.11
2018-07-29T08:42:52.507Z,951.53
2018-07-29T08:44:00.460Z,951.06
2018-07-29T08:45:08.612Z,949.45
2018-07-29T08:46:16.633Z,949.52
2018-07-29T08:47:24.728Z,950.33
2018-07-29T08:48:32.911Z,950.77
2018-07-29T08:49:41.076Z,950.24
2018-07-29T08:50:49.178Z,949.50
2018-07-29T08:51:57.250Z,949.51
2018-07-29T08:53:05.324Z,949.67
2018-07-29T08:54:13.571Z,948.54
2018-07-29T08:55:21.507Z,948.99
2018-07-29T08:56:29.603Z,949.45
2018-07-29T08:57:37.757Z,948.20
2018-07-29T08:58:45.733Z,949.43
2018-07-29T08:59:53.931Z,950.09
2018-07-29T09:01:01.921Z,949.49
2018-07-29T09:02:09.994Z,948.65
2018-07-29T09:03:18.099Z,948.64
2018-07-29T09:04:26.558Z,948.54
2018-07-29T09:05:34.231Z,948.15
2018-07-29T09:06:42.327Z,948.57
2018-07-29T09:07:50.412Z,948.06
2018-07-29T09:08:59.458Z,947.59
2018-07-29T09:10:06.667Z,947.33
2018-07-29T09:11:15.429Z,946.75
2018-07-29T09:12:22.747Z,946.52
2018-07-29T09:13:30.848Z,946.28
2018-07-29T09:14:38.906Z,945.87
2018-07-29T09:15:47.166Z,945.61
2018-07-29T09:16:55.051Z,945.52
2018-07-29T09:18:03.181Z,945.46
2018-07-29T09:19:11.327Z,945.29
2018-07-29T09:20:19.344Z,944.93
2018-07-29T09:21:27.557Z,944.48
2018-07-29T09:22:35.484Z,943.24
2018-07-29T09:23:43.580Z,942.77
2018-07-29T09:24:51.682Z,942.72
2018-07-29T09:26:00.070Z,942.60
2018-07-29T09:27:11.289Z,942.53
2018-07-29T09:28:15.932Z,942.48
2018-07-29T09:29:27.425Z,942.48
2018-07-29T09:30:32.254Z,942.44
2018-07-29T09:31:40.485Z,942.42
2018-07-29T09:32:48.317Z,942.39
2018-07-29T09:33:56.324Z,942.31
2018-07-29T09:35:04.630Z,942.32
2018-07-29T09:36:12.482Z,942.30
2018-07-29T09:37:20.529Z,942.31
2018-07-29T09:38:28.638Z,942.29
2018-07-29T09:39:36.683Z,942.26
2018-07-29T09:40:44.767Z,942.29
2018-07-29T09:41:52.831Z,942.29
2018-07-29T09:43:01.024Z,942.33
2018-07-29T09:44:09.003Z,942.33
2018-07-29T09:45:17.160Z,942.31
2018-07-29T09:46:25.140Z,942.26
2018-07-29T09:47:33.328Z,942.35
2018-07-29T09:48:41.325Z,942.32
2018-07-29T09:49:49.647Z,942.29
2018-07-29T09:50:57.567Z,942.31
2018-07-29T09:53:17.705Z,942.39
2018-07-29T09:54:25.705Z,942.37
2018-07-29T09:55:33.805Z,942.36
2018-07-29T09:56:41.878Z,942.33
2018-07-29T09:57:50.072Z,942.34
2018-07-29T09:58:58.044Z,942.34
2018-07-29T10:00:06.109Z,942.33
2018-07-29T10:01:14.186Z,942.32
2018-07-29T10:02:22.243Z,942.32
2018-07-29T10:03:30.437Z,942.25
2018-07-29T10:04:38.450Z,942.32
2018-07-29T10:05:46.490Z,942.31
2018-07-29T10:06:54.870Z,942.31
2018-07-29T10:08:03.637Z,942.26
2018-07-29T10:09:11.818Z,942.27
2018-07-29T10:10:19.784Z,942.25
2018-07-29T10:11:27.863Z,942.22
2018-07-29T10:12:35.978Z,942.13
2018-07-29T10:13:44.039Z,942.20
2018-07-29T10:14:52.337Z,942.15
2018-07-29T10:16:00.358Z,942.17
2018-07-29T10:17:08.436Z,942.21
2018-07-29T10:18:16.511Z,942.19
2018-07-29T10:19:24.590Z,942.24
2018-07-29T10:20:32.708Z,942.23
2018-07-29T10:21:42.132Z,942.27
2018-07-29T10:22:50.016Z,942.25
2018-07-29T10:23:58.130Z,942.29
2018-07-29T10:25:06.308Z,942.28
2018-07-29T10:26:14.539Z,942.27
2018-07-29T10:27:22.317Z,942.27
2018-07-29T10:28:30.481Z,942.24
2018-07-29T10:29:38.472Z,942.25
2018-07-29T10:30:46.631Z,942.19
2018-07-29T10:31:54.587Z,942.19
2018-07-29T10:33:02.682Z,942.17
2018-07-29T10:34:10.752Z,942.11
2018-07-29T10:35:18.823Z,942.11
2018-07-29T10:36:32.156Z,942.11
2018-07-29T10:37:34.986Z,942.09
2018-07-29T10:38:43.347Z,942.07
2018-07-29T10:39:51.137Z,942.07
2018-07-29T10:40:59.183Z,942.07
2018-07-29T10:42:07.381Z,942.04
2018-07-29T10:43:15.313Z,942.04
2018-07-29T10:44:23.944Z,942.06
2018-07-29T10:45:31.491Z,942.06
2018-07-29T10:46:39.609Z,942.03
2018-07-29T10:47:47.879Z,942.06
2018-07-29T10:48:55.917Z,942.07
2018-07-29T10:50:03.998Z,942.05
2018-07-29T10:51:12.096Z,942.01
2018-07-29T10:52:20.137Z,942.01
2018-07-29T10:53:28.248Z,941.98
2018-07-29T10:54:36.287Z,941.92
2018-07-29T10:55:44.660Z,941.89
2018-07-29T10:56:52.786Z,941.93
2018-07-29T10:58:00.868Z,941.88
2018-07-29T10:59:08.594Z,941.90
2018-07-29T11:00:16.761Z,941.88
2018-07-29T11:01:24.748Z,941.84
2018-07-29T11:02:32.885Z,941.84
2018-07-29T11:03:40.899Z,941.88
2018-07-29T11:04:48.976Z,941.87
2018-07-29T11:05:57.054Z,941.88
2018-07-29T11:07:05.095Z,941.84
2018-07-29T11:08:13.284Z,941.83
2018-07-29T11:09:21.255Z,941.85
2018-07-29T11:10:29.338Z,941.81
2018-07-29T11:11:37.519Z,941.83
2018-07-29T11:12:45.608Z,941.78
2018-07-29T11:13:53.555Z,941.78
2018-07-29T11:15:01.656Z,941.74
2018-07-29T11:16:09.814Z,941.76
2018-07-29T11:17:17.802Z,941.77
2018-07-29T11:18:25.973Z,941.80
2018-07-29T11:19:33.944Z,941.80
2018-07-29T11:20:42.018Z,941.81
2018-07-29T11:21:50.086Z,941.82
2018-07-29T11:22:58.375Z,941.83
2018-07-29T11:24:06.831Z,941.84
2018-07-29T11:25:14.505Z,941.83
2018-07-29T11:26:22.583Z,941.82
2018-07-29T11:27:30.668Z,941.76
2018-07-29T11:28:38.740Z,941.75
2018-07-29T11:29:46.859Z,941.73
2018-07-29T11:30:54.878Z,941.77
2018-07-29T11:32:03.067Z,941.74
2018-07-29T11:33:11.078Z,941.77
2018-07-29T11:34:19.119Z,941.73
2018-07-29T11:35:27.223Z,941.70
2018-07-29T11:36:35.465Z,941.73
2018-07-29T11:37:43.544Z,941.71
2018-07-29T11:38:51.621Z,941.69
2018-07-29T11:39:59.734Z,941.70
2018-07-29T11:41:07.814Z,941.74
2018-07-29T11:42:16.089Z,941.70
2018-07-29T11:43:23.930Z,941.73
2018-07-29T11:44:32.186Z,941.73
2018-07-29T11:45:40.453Z,941.72
2018-07-29T11:46:48.585Z,941.74
2018-07-29T11:47:56.665Z,941.76
2018-07-29T11:49:04.683Z,941.75
2018-07-29T11:50:12.769Z,941.73
2018-07-29T11:51:21.128Z,941.73
2018-07-29T11:52:29.103Z,941.71
2018-07-29T11:53:37.290Z,941.69
2018-07-29T11:54:45.244Z,941.70
2018-07-29T11:55:53.351Z,941.67
2018-07-29T11:57:01.509Z,941.67
2018-07-29T11:58:09.515Z,941.63
2018-07-29T11:59:17.558Z,941.67
2018-07-29T12:00:25.620Z,941.63
2018-07-29T12:01:33.719Z,941.58
2018-07-29T12:02:41.878Z,941.58
2018-07-29T12:03:50.448Z,941.60
2018-07-29T12:04:57.949Z,941.56
2018-07-29T12:06:06.634Z,941.59
2018-07-29T12:07:17.511Z,941.58
2018-07-29T12:08:22.238Z,941.61
2018-07-29T12:09:33.660Z,941.59
2018-07-29T12:10:38.322Z,941.57
2018-07-29T12:11:46.403Z,941.59
2018-07-29T12:12:54.543Z,941.56
2018-07-29T12:14:02.531Z,941.53
2018-07-29T12:15:11.910Z,941.50
2018-07-29T12:16:18.669Z,941.52
2018-07-29T12:17:26.737Z,941.51
2018-07-29T12:18:34.920Z,941.48
2018-07-29T12:19:42.882Z,941.48
2018-07-29T12:20:51.002Z,941.48
2018-07-29T12:21:59.246Z,941.49
2018-07-29T12:23:07.343Z,941.48
2018-07-29T12:24:15.474Z,941.45
2018-07-29T12:25:23.489Z,941.44
2018-07-29T12:26:31.916Z,941.45
2018-07-29T12:27:39.684Z,941.44
2018-07-29T12:28:47.699Z,941.42
2018-07-29T12:29:55.928Z,941.42
2018-07-29T12:31:03.850Z,941.41
2018-07-29T12:32:11.920Z,941.41
2018-07-29T12:33:20.090Z,941.40
2018-07-29T12:34:28.155Z,941.40
2018-07-29T12:35:36.135Z,941.43
2018-07-29T12:36:44.218Z,941.41
2018-07-29T12:37:52.273Z,941.44
2018-07-29T12:39:00.356Z,941.43
2018-07-29T12:40:08.598Z,941.43
2018-07-29T12:41:16.517Z,941.42
2018-07-29T12:42:24.606Z,941.43
2018-07-29T12:43:32.647Z,941.42
2018-07-29T12:44:40.758Z,941.45
2018-07-29T12:45:48.899Z,941.44
2018-07-29T12:46:56.885Z,941.45
2018-07-29T12:48:05.154Z,941.45
2018-07-29T12:49:13.356Z,941.47
2018-07-29T12:50:21.866Z,941.41
2018-07-29T12:51:30.067Z,941.41
2018-07-29T12:52:37.664Z,941.42
2018-07-29T12:53:45.732Z,941.40
2018-07-29T12:54:54.156Z,941.40
2018-07-29T12:56:01.903Z,941.38
2018-07-29T12:57:10.061Z,941.38
2018-07-29T12:58:18.052Z,941.37
2018-07-29T12:59:26.110Z,941.34
2018-07-29T13:00:34.247Z,941.31
2018-07-29T13:01:42.262Z,941.31
2018-07-29T13:02:50.402Z,941.32
2018-07-29T13:03:58.395Z,941.35
2018-07-29T13:05:06.537Z,941.34
2018-07-29T13:06:14.559Z,941.29
2018-07-29T13:07:22.643Z,941.29
2018-07-29T13:08:30.704Z,941.26
2018-07-29T13:09:38.751Z,941.27
2018-07-29T13:10:46.846Z,941.29
2018-07-29T13:11:54.942Z,941.27
2018-07-29T13:13:03.036Z,941.24
2018-07-29T13:14:11.066Z,941.23
2018-07-29T13:15:19.192Z,941.26
2018-07-29T13:16:27.217Z,941.23
2018-07-29T13:17:35.320Z,941.20
2018-07-29T13:18:43.370Z,941.15
2018-07-29T13:19:51.513Z,941.16
2018-07-29T13:20:59.599Z,941.17
2018-07-29T13:22:07.602Z,941.19
2018-07-29T13:23:15.674Z,941.13
2018-07-29T13:24:23.762Z,941.13
2018-07-29T13:25:32.059Z,941.16
2018-07-29T13:26:40.110Z,941.17
2018-07-29T13:27:48.258Z,941.14
2018-07-29T13:28:56.245Z,941.12
2018-07-29T13:30:04.305Z,941.14
2018-07-29T13:31:12.379Z,941.14
2018-07-29T13:32:20.452Z,941.10
2018-07-29T13:33:28.623Z,941.09
2018-07-29T13:34:37.715Z,941.13
2018-07-29T13:35:44.677Z,941.07
2018-07-29T13:36:52.807Z,941.09
2018-07-29T13:38:00.838Z,941.10
2018-07-29T13:39:09.032Z,941.10
2018-07-29T13:40:17.015Z,941.08
2018-07-29T13:41:25.058Z,941.08
2018-07-29T13:42:33.157Z,941.07
2018-07-29T13:43:41.500Z,941.03
2018-07-29T13:44:49.424Z,941.03
2018-07-29T13:45:57.376Z,941.03
2018-07-29T13:47:05.452Z,941.03
2018-07-29T13:48:13.527Z,940.97
2018-07-29T13:49:21.956Z,940.96
2018-07-29T13:50:29.950Z,941.01
2018-07-29T13:51:38.282Z,940.99
2018-07-29T13:52:45.995Z,941.08
2018-07-29T13:53:54.069Z,941.01
2018-07-29T13:55:02.159Z,941.02
2018-07-29T13:56:10.345Z,941.02
2018-07-29T13:57:18.291Z,941.00
2018-07-29T13:58:26.380Z,941.05
2018-07-29T13:59:34.438Z,940.99
2018-07-29T14:00:42.754Z,940.97
2018-07-29T14:01:50.889Z,940.97
2018-07-29T14:02:58.866Z,941.00
2018-07-29T14:04:06.946Z,941.01
2018-07-29T14:05:15.016Z,941.03
2018-07-29T14:06:23.097Z,941.02
2018-07-29T14:07:34.625Z,941.03
2018-07-29T14:08:39.274Z,941.01
2018-07-29T14:09:47.340Z,941.01
2018-07-29T14:10:55.631Z,941.02
2018-07-29T14:12:03.727Z,941.01
2018-07-29T14:13:11.634Z,941.03